Time;durP1;ratioP1;P1;durP2;ratioP2;P2;SDS_P1;SDS_P2;PMS_P1;PMS_P2;Temp;Humidity;BMP_temperature;BMP_pressure;BME280_temperature;BME280_humidity;BME280_pressure;Samples;Min_cycle;Max_cycle;Signal;HPM_P1;HPM_P2
2023/07/14 00:00:39;;;;;;;6.82;2.88;;;;;;;;;;5011411;28;93926;-74
2023/07/14 00:03:06;;;;;;;6.70;3.13;;;;;;;;;;5008565;28;92544;-75
2023/07/14 00:05:34;;;;;;;7.47;2.97;;;;;;;;;;4998315;28;93310;-75
2023/07/14 00:08:01;;;;;;;8.77;3.35;;;;;;;;;;5005828;28;92526;-73
2023/07/14 00:10:31;;;;;;;11.98;3.35;;;;;;;;;;5015629;28;93192;-75
2023/07/14 00:13:04;;;;;;;5.78;2.90;;;;;;;;;;5008738;28;93449;-74
2023/07/14 00:15:31;;;;;;;9.02;2.83;;;;;;;;;;4995323;28;92584;-74
2023/07/14 00:18:10;;;;;;;10.30;3.10;;;;;;;;;;5010994;28;95348;-74
2023/07/14 00:20:36;;;;;;;12.32;3.33;;;;;;;;;;5001511;28;94736;-74
2023/07/14 00:23:10;;;;;;;11.07;2.97;;;;;;;;;;4995381;28;92921;-74
2023/07/14 00:25:36;;;;;;;13.45;3.53;;;;;;;;;;4995037;28;93647;-71
2023/07/14 00:28:11;;;;;;;8.18;3.13;;;;;;;;;;4997777;28;93497;-71
2023/07/14 00:30:37;;;;;;;8.98;3.35;;;;;;;;;;5005659;28;93356;-70
2023/07/14 00:33:09;;;;;;;7.85;3.08;;;;;;;;;;4995064;28;93583;-73
2023/07/14 00:35:36;;;;;;;6.13;2.97;;;;;;;;;;5008615;28;91768;-72
2023/07/14 00:38:02;;;;;;;6.50;3.00;;;;;;;;;;5010990;28;92633;-73
2023/07/14 00:40:32;;;;;;;9.13;3.20;;;;;;;;;;5013044;28;93239;-71
2023/07/14 00:42:58;;;;;;;10.35;3.33;;;;;;;;;;5004933;28;94860;-74
2023/07/14 00:45:26;;;;;;;5.88;2.92;;;;;;;;;;5003829;28;95585;-75
2023/07/14 00:48:03;;;;;;;5.85;2.92;;;;;;;;;;5004223;28;94391;-73
2023/07/14 00:50:32;;;;;;;8.20;2.72;;;;;;;;;;5015246;28;92499;-75
2023/07/14 00:53:01;;;;;;;7.35;3.17;;;;;;;;;;5000887;28;93619;-76
2023/07/14 00:55:51;;;;;;;9.97;3.10;;;;;;;;;;4994642;28;92552;-74
2023/07/14 00:58:26;;;;;;;6.80;2.78;;;;;;;;;;5002390;28;93207;-73
2023/07/14 01:01:03;;;;;;;7.18;2.92;;;;;;;;;;5009354;28;92939;-73
2023/07/14 01:03:30;;;;;;;12.90;3.35;;;;;;;;;;5006392;28;92778;-76
2023/07/14 01:05:58;;;;;;;7.03;3.25;;;;;;;;;;4993680;28;93201;-73
2023/07/14 01:08:25;;;;;;;11.48;3.25;;;;;;;;;;5006515;28;95953;-74
2023/07/14 01:10:52;;;;;;;6.82;2.90;;;;;;;;;;5012672;28;92391;-75
2023/07/14 01:13:18;;;;;;;8.25;3.30;;;;;;;;;;5015820;28;93199;-75
2023/07/14 01:15:45;;;;;;;12.25;3.67;;;;;;;;;;5014513;28;92601;-74
2023/07/14 01:18:12;;;;;;;9.10;3.10;;;;;;;;;;5014761;28;93481;-74
2023/07/14 01:20:38;;;;;;;6.55;3.20;;;;;;;;;;5000557;28;93406;-74
2023/07/14 01:23:07;;;;;;;6.78;2.95;;;;;;;;;;4994213;28;92477;-75
2023/07/14 01:25:34;;;;;;;5.30;3.42;;;;;;;;;;4992862;28;93259;-75
2023/07/14 01:28:03;;;;;;;6.15;2.70;;;;;;;;;;4993944;28;94125;-74
2023/07/14 01:30:29;;;;;;;9.77;3.35;;;;;;;;;;4993243;28;92424;-74
2023/07/14 01:32:56;;;;;;;10.80;3.30;;;;;;;;;;4998309;28;94816;-75
2023/07/14 01:35:39;;;;;;;10.57;3.47;;;;;;;;;;5016219;28;93455;-74
2023/07/14 01:38:06;;;;;;;5.25;3.70;;;;;;;;;;5006419;28;93133;-74
2023/07/14 01:40:33;;;;;;;10.82;3.75;;;;;;;;;;4999461;28;93694;-74
2023/07/14 01:43:01;;;;;;;6.63;3.45;;;;;;;;;;5001897;28;92993;-72
2023/07/14 01:45:31;;;;;;;8.77;3.92;;;;;;;;;;4999884;28;96422;-72
2023/07/14 01:47:59;;;;;;;14.32;3.47;;;;;;;;;;5004370;28;93715;-72
2023/07/14 01:50:39;;;;;;;9.65;4.15;;;;;;;;;;4999181;28;92179;-73
2023/07/14 01:53:10;;;;;;;8.38;4.13;;;;;;;;;;4997593;28;92577;-73
2023/07/14 01:55:37;;;;;;;8.02;4.05;;;;;;;;;;5000130;28;93465;-72
2023/07/14 01:58:07;;;;;;;8.63;4.22;;;;;;;;;;4994951;28;95003;-73
2023/07/14 02:00:35;;;;;;;9.98;3.75;;;;;;;;;;5003128;28;94027;-73
2023/07/14 02:03:04;;;;;;;6.85;3.65;;;;;;;;;;4993697;28;92549;-73
2023/07/14 02:05:35;;;;;;;6.95;3.85;;;;;;;;;;5000978;28;93239;-73
2023/07/14 02:08:02;;;;;;;9.15;4.22;;;;;;;;;;5013581;28;92895;-73
2023/07/14 02:10:29;;;;;;;10.48;3.90;;;;;;;;;;5002830;28;92495;-73
2023/07/14 02:12:55;;;;;;;11.07;5.00;;;;;;;;;;5005464;28;93010;-72
2023/07/14 02:15:24;;;;;;;10.50;4.45;;;;;;;;;;4994073;28;93045;-73
2023/07/14 02:17:52;;;;;;;7.57;3.50;;;;;;;;;;5011712;28;92782;-74
2023/07/14 02:20:22;;;;;;;22.00;4.00;;;;;;;;;;5013327;28;93776;-74
2023/07/14 02:22:49;;;;;;;7.63;4.38;;;;;;;;;;5024198;28;95115;-75
2023/07/14 02:25:17;;;;;;;7.38;3.83;;;;;;;;;;5033500;27;95856;-74
2023/07/14 02:27:44;;;;;;;6.22;3.90;;;;;;;;;;5012988;28;93501;-74
2023/07/14 02:30:12;;;;;;;11.63;4.35;;;;;;;;;;5010635;28;93275;-72
2023/07/14 02:32:40;;;;;;;11.02;4.15;;;;;;;;;;4993657;28;94157;-72
2023/07/14 02:35:14;;;;;;;11.60;4.53;;;;;;;;;;5002493;28;93397;-73
2023/07/14 02:38:03;;;;;;;10.13;4.13;;;;;;;;;;4999017;28;92548;-73
2023/07/14 02:40:32;;;;;;;10.38;4.47;;;;;;;;;;5012547;28;93283;-72
2023/07/14 02:42:58;;;;;;;10.77;4.55;;;;;;;;;;5011855;28;92551;-72
2023/07/14 02:45:25;;;;;;;10.68;4.78;;;;;;;;;;5002864;28;93173;-72
2023/07/14 02:47:54;;;;;;;14.65;5.15;;;;;;;;;;5009385;28;96438;-72
2023/07/14 02:50:20;;;;;;;7.88;4.75;;;;;;;;;;5006921;28;92561;-74
2023/07/14 02:52:47;;;;;;;8.15;4.80;;;;;;;;;;5007522;28;93181;-71
2023/07/14 02:55:13;;;;;;;10.85;4.80;;;;;;;;;;5013613;28;96145;-72
2023/07/14 02:57:40;;;;;;;9.60;4.53;;;;;;;;;;5007396;28;92573;-72
2023/07/14 03:00:07;;;;;;;7.95;4.35;;;;;;;;;;5004534;28;92781;-72
2023/07/14 03:02:34;;;;;;;9.82;5.47;;;;;;;;;;5002818;28;93841;-72
2023/07/14 03:05:01;;;;;;;8.27;4.57;;;;;;;;;;5007449;28;93049;-72
2023/07/14 03:07:27;;;;;;;9.73;5.30;;;;;;;;;;5010628;28;93443;-72
2023/07/14 03:09:53;;;;;;;9.57;5.28;;;;;;;;;;4995272;28;92444;-72
2023/07/14 03:12:20;;;;;;;8.30;5.18;;;;;;;;;;4998266;28;96585;-71
2023/07/14 03:14:46;;;;;;;7.93;5.03;;;;;;;;;;5009681;28;93493;-71
2023/07/14 03:17:13;;;;;;;12.30;5.45;;;;;;;;;;5001946;28;92498;-72
2023/07/14 03:19:39;;;;;;;7.18;4.97;;;;;;;;;;5009266;28;93300;-72
2023/07/14 03:22:06;;;;;;;13.15;5.22;;;;;;;;;;5003940;28;93619;-72
2023/07/14 03:24:32;;;;;;;13.68;5.60;;;;;;;;;;5002090;28;92566;-73
2023/07/14 03:26:59;;;;;;;13.82;5.95;;;;;;;;;;5013835;28;93471;-73
2023/07/14 03:29:25;;;;;;;13.40;6.28;;;;;;;;;;5008008;28;91762;-73
2023/07/14 03:31:51;;;;;;;10.90;5.25;;;;;;;;;;5004825;28;93052;-73
2023/07/14 03:34:18;;;;;;;8.43;5.10;;;;;;;;;;4996416;28;94506;-72
2023/07/14 03:36:44;;;;;;;13.45;5.68;;;;;;;;;;5008759;28;96277;-72
2023/07/14 03:39:25;;;;;;;7.93;5.05;;;;;;;;;;5013825;28;95616;-72
2023/07/14 03:41:52;;;;;;;9.35;5.82;;;;;;;;;;5012066;28;94273;-73
2023/07/14 03:44:19;;;;;;;12.93;4.78;;;;;;;;;;5008939;28;92548;-72
2023/07/14 03:46:45;;;;;;;9.63;5.72;;;;;;;;;;5014384;28;92974;-72
2023/07/14 03:49:13;;;;;;;10.07;5.55;;;;;;;;;;4997905;28;92461;-72
2023/07/14 03:51:40;;;;;;;11.45;5.22;;;;;;;;;;4999277;28;93392;-72
2023/07/14 03:54:06;;;;;;;12.48;5.35;;;;;;;;;;5011428;28;93829;-72
2023/07/14 03:56:33;;;;;;;12.80;5.18;;;;;;;;;;5005727;28;92490;-73
2023/07/14 03:58:59;;;;;;;7.63;5.32;;;;;;;;;;5005538;28;92978;-72
2023/07/14 04:01:26;;;;;;;14.40;5.97;;;;;;;;;;5009369;28;96569;-73
2023/07/14 04:03:52;;;;;;;15.02;5.50;;;;;;;;;;4996475;28;92592;-73
2023/07/14 04:06:19;;;;;;;11.32;5.00;;;;;;;;;;5004789;28;93513;-73
2023/07/14 04:08:45;;;;;;;14.52;5.40;;;;;;;;;;5013017;28;92423;-74
2023/07/14 04:11:12;;;;;;;9.00;5.03;;;;;;;;;;5012753;28;93600;-72
2023/07/14 04:13:38;;;;;;;7.90;4.80;;;;;;;;;;5014159;28;93440;-73
2023/07/14 04:16:07;;;;;;;9.52;5.45;;;;;;;;;;5015669;28;92447;-73
2023/07/14 04:18:34;;;;;;;14.32;5.00;;;;;;;;;;5015203;28;93157;-73
2023/07/14 04:21:01;;;;;;;12.85;6.00;;;;;;;;;;5014894;28;93492;-72
2023/07/14 04:23:27;;;;;;;9.40;4.93;;;;;;;;;;5009544;28;92509;-73
2023/07/14 04:25:54;;;;;;;17.58;5.18;;;;;;;;;;4996647;28;95226;-72
2023/07/14 04:28:21;;;;;;;12.93;5.78;;;;;;;;;;5010730;28;93503;-72
2023/07/14 04:30:54;;;;;;;12.88;5.38;;;;;;;;;;5008742;28;93614;-73
2023/07/14 04:33:21;;;;;;;17.65;6.07;;;;;;;;;;4996911;28;94045;-72
2023/07/14 04:35:49;;;;;;;12.88;5.60;;;;;;;;;;5009817;28;92583;-71
2023/07/14 04:38:16;;;;;;;7.70;4.88;;;;;;;;;;5003244;28;94299;-73
2023/07/14 04:40:43;;;;;;;8.55;4.88;;;;;;;;;;5011866;28;94586;-73
2023/07/14 04:43:10;;;;;;;11.35;5.45;;;;;;;;;;5013721;28;92057;-72
2023/07/14 04:45:40;;;;;;;12.63;5.80;;;;;;;;;;5004966;28;93715;-73
2023/07/14 04:48:07;;;;;;;16.75;6.07;;;;;;;;;;5005378;28;93449;-73
2023/07/14 04:50:34;;;;;;;14.35;5.55;;;;;;;;;;4996974;28;96336;-74
2023/07/14 04:53:05;;;;;;;9.57;5.72;;;;;;;;;;4994678;28;93800;-71
2023/07/14 04:55:40;;;;;;;17.98;6.00;;;;;;;;;;5006462;28;93996;-71
2023/07/14 04:58:07;;;;;;;9.57;5.22;;;;;;;;;;5014789;28;92372;-71
2023/07/14 05:00:34;;;;;;;14.35;5.45;;;;;;;;;;5006077;28;93594;-72
2023/07/14 05:03:01;;;;;;;10.98;4.95;;;;;;;;;;5008265;28;92578;-71
2023/07/14 05:05:28;;;;;;;7.63;4.75;;;;;;;;;;5004403;28;94020;-71
2023/07/14 05:07:58;;;;;;;10.95;4.80;;;;;;;;;;5003064;28;92730;-71
2023/07/14 05:10:25;;;;;;;9.80;4.93;;;;;;;;;;5004885;28;92443;-72
2023/07/14 05:12:52;;;;;;;9.70;4.60;;;;;;;;;;5001923;28;93198;-71
2023/07/14 05:15:19;;;;;;;26.15;5.00;;;;;;;;;;5006692;28;96615;-71
2023/07/14 05:17:46;;;;;;;9.73;4.70;;;;;;;;;;5011839;28;95775;-72
2023/07/14 05:20:14;;;;;;;10.52;4.68;;;;;;;;;;5007214;28;92783;-71
2023/07/14 05:22:42;;;;;;;14.48;4.75;;;;;;;;;;5002321;28;92718;-71
2023/07/14 05:25:08;;;;;;;8.90;4.60;;;;;;;;;;5008272;28;93194;-71
2023/07/14 05:27:36;;;;;;;8.98;4.30;;;;;;;;;;5013219;28;94478;-71
2023/07/14 05:30:03;;;;;;;11.18;4.25;;;;;;;;;;5003025;28;92936;-72
2023/07/14 05:32:29;;;;;;;8.38;4.25;;;;;;;;;;5004158;28;93363;-72
2023/07/14 05:34:55;;;;;;;14.98;5.03;;;;;;;;;;4997343;28;93430;-72
2023/07/14 05:37:22;;;;;;;15.25;5.65;;;;;;;;;;5008564;28;92486;-71
2023/07/14 05:39:48;;;;;;;9.32;4.30;;;;;;;;;;5006692;28;97001;-71
2023/07/14 05:42:15;;;;;;;10.50;4.47;;;;;;;;;;5002817;28;92502;-72
2023/07/14 05:44:41;;;;;;;12.10;4.20;;;;;;;;;;5001630;28;93331;-72
2023/07/14 05:47:08;;;;;;;20.42;4.88;;;;;;;;;;5010450;28;93851;-72
2023/07/14 05:49:35;;;;;;;8.98;4.72;;;;;;;;;;4999240;28;92513;-72
2023/07/14 05:52:02;;;;;;;15.18;4.35;;;;;;;;;;5006657;28;93270;-73
2023/07/14 05:54:29;;;;;;;16.85;4.40;;;;;;;;;;5004701;28;93272;-72
2023/07/14 05:56:55;;;;;;;12.32;4.38;;;;;;;;;;5009508;28;92044;-70
2023/07/14 05:59:22;;;;;;;14.00;4.68;;;;;;;;;;4997694;28;94000;-73
2023/07/14 06:01:51;;;;;;;14.88;5.15;;;;;;;;;;5006973;28;92897;-73
2023/07/14 06:04:18;;;;;;;13.95;4.45;;;;;;;;;;4992235;28;94767;-70
2023/07/14 06:06:44;;;;;;;16.92;4.75;;;;;;;;;;4993135;28;93811;-72
2023/07/14 06:09:13;;;;;;;18.77;5.20;;;;;;;;;;4993178;28;92489;-73
2023/07/14 06:11:40;;;;;;;9.90;4.85;;;;;;;;;;4994415;28;93238;-72
2023/07/14 06:14:07;;;;;;;16.52;5.30;;;;;;;;;;4997002;28;93662;-72
2023/07/14 06:16:33;;;;;;;15.48;4.78;;;;;;;;;;5005527;28;92869;-72
2023/07/14 06:19:00;;;;;;;15.02;5.85;;;;;;;;;;5017061;28;93695;-73
2023/07/14 06:21:26;;;;;;;12.20;4.53;;;;;;;;;;5016510;28;91813;-73
2023/07/14 06:23:53;;;;;;;17.35;5.00;;;;;;;;;;5015674;28;92761;-71
2023/07/14 06:26:19;;;;;;;12.60;4.70;;;;;;;;;;5001038;28;93940;-74
2023/07/14 06:28:46;;;;;;;10.60;4.63;;;;;;;;;;4996999;28;95409;-74
2023/07/14 06:31:13;;;;;;;13.35;4.80;;;;;;;;;;5001204;28;95888;-73
2023/07/14 06:33:40;;;;;;;14.90;5.38;;;;;;;;;;5001775;28;93770;-72
2023/07/14 06:36:07;;;;;;;9.60;4.53;;;;;;;;;;5006952;28;92681;-73
2023/07/14 06:38:33;;;;;;;12.45;5.65;;;;;;;;;;5006375;28;93118;-73
2023/07/14 06:41:03;;;;;;;18.67;5.25;;;;;;;;;;5015460;28;94209;-86
2023/07/14 06:43:31;;;;;;;13.45;5.28;;;;;;;;;;5001082;28;94710;-87
2023/07/14 06:45:58;;;;;;;19.48;4.88;;;;;;;;;;5005031;28;92990;-86
2023/07/14 06:48:25;;;;;;;13.00;4.90;;;;;;;;;;5002779;28;92434;-87
2023/07/14 06:50:52;;;;;;;12.07;5.20;;;;;;;;;;5005219;28;94627;-86
2023/07/14 06:53:19;;;;;;;10.77;4.82;;;;;;;;;;5004159;28;95937;-86
2023/07/14 06:55:45;;;;;;;10.43;4.75;;;;;;;;;;5004404;28;92520;-86
2023/07/14 06:58:12;;;;;;;18.23;5.45;;;;;;;;;;5002290;28;94392;-87
2023/07/14 07:00:39;;;;;;;12.48;4.40;;;;;;;;;;5014148;28;93902;-88
2023/07/14 07:03:06;;;;;;;11.00;4.38;;;;;;;;;;5006488;28;93661;-86
2023/07/14 07:05:35;;;;;;;9.98;4.60;;;;;;;;;;5020315;28;94249;-86
2023/07/14 07:08:01;;;;;;;9.57;4.45;;;;;;;;;;5021227;28;92520;-86
2023/07/14 07:10:28;;;;;;;13.20;5.20;;;;;;;;;;5017576;28;93772;-86
2023/07/14 07:12:54;;;;;;;9.63;4.30;;;;;;;;;;4998782;28;94800;-86
2023/07/14 07:15:20;;;;;;;12.43;4.50;;;;;;;;;;4998792;28;94296;-86
2023/07/14 07:17:47;;;;;;;14.38;5.68;;;;;;;;;;5011901;28;95305;-86
2023/07/14 07:20:13;;;;;;;7.93;4.80;;;;;;;;;;5003829;28;94535;-86
2023/07/14 07:22:40;;;;;;;10.63;4.57;;;;;;;;;;5012915;28;92493;-87
2023/07/14 07:25:07;;;;;;;15.63;5.82;;;;;;;;;;5012281;28;94597;-86
2023/07/14 07:27:34;;;;;;;13.63;4.60;;;;;;;;;;5003566;28;92517;-84
2023/07/14 07:30:02;;;;;;;10.93;4.95;;;;;;;;;;5003284;28;92674;-82
2023/07/14 07:32:29;;;;;;;11.90;4.95;;;;;;;;;;4998601;28;94629;-82
2023/07/14 07:34:59;;;;;;;10.75;5.07;;;;;;;;;;5009469;28;92210;-82
2023/07/14 07:37:26;;;;;;;15.25;6.07;;;;;;;;;;5001664;28;93557;-83
2023/07/14 07:39:56;;;;;;;11.75;5.57;;;;;;;;;;4998565;28;94821;-82
2023/07/14 07:42:22;;;;;;;18.55;6.25;;;;;;;;;;4997329;28;95000;-81
2023/07/14 07:44:49;;;;;;;14.25;5.90;;;;;;;;;;5001075;28;97106;-81
2023/07/14 07:47:16;;;;;;;16.70;5.57;;;;;;;;;;5006126;28;92453;-82
2023/07/14 07:49:42;;;;;;;13.68;5.63;;;;;;;;;;5002736;28;94387;-81
2023/07/14 07:52:11;;;;;;;16.10;6.15;;;;;;;;;;4997848;28;94769;-82
2023/07/14 07:54:39;;;;;;;20.08;6.28;;;;;;;;;;4995722;28;92543;-82
2023/07/14 07:57:09;;;;;;;14.10;5.85;;;;;;;;;;4996507;28;93032;-82
2023/07/14 07:59:35;;;;;;;17.73;5.80;;;;;;;;;;5015258;28;93342;-82
2023/07/14 08:02:02;;;;;;;11.65;5.72;;;;;;;;;;5001801;28;92550;-82
2023/07/14 08:04:29;;;;;;;17.02;5.63;;;;;;;;;;4999946;28;94206;-82
2023/07/14 08:06:55;;;;;;;15.25;6.40;;;;;;;;;;4996968;28;94842;-82
2023/07/14 08:09:22;;;;;;;10.77;5.18;;;;;;;;;;5005087;28;96671;-82
2023/07/14 08:11:48;;;;;;;17.30;6.40;;;;;;;;;;5007487;28;94562;-82
2023/07/14 08:14:15;;;;;;;15.45;6.13;;;;;;;;;;4999049;28;94227;-82
2023/07/14 08:16:42;;;;;;;16.65;6.95;;;;;;;;;;4999955;28;94447;-82
2023/07/14 08:19:08;;;;;;;14.18;6.38;;;;;;;;;;4999600;28;94449;-82
2023/07/14 08:21:38;;;;;;;14.07;6.32;;;;;;;;;;5004959;28;92487;-82
2023/07/14 08:24:08;;;;;;;12.15;5.72;;;;;;;;;;4990753;28;94532;-82
2023/07/14 08:26:35;;;;;;;11.35;5.53;;;;;;;;;;5008494;28;94804;-82
2023/07/14 08:29:03;;;;;;;20.48;7.72;;;;;;;;;;5004331;28;93336;-82
2023/07/14 08:31:30;;;;;;;17.58;6.88;;;;;;;;;;5005052;28;96989;-82
2023/07/14 08:33:56;;;;;;;16.95;6.53;;;;;;;;;;4997977;28;92453;-82
2023/07/14 08:36:23;;;;;;;17.23;6.68;;;;;;;;;;4996011;28;94808;-82
2023/07/14 08:38:54;;;;;;;15.80;6.25;;;;;;;;;;4998258;28;94574;-83
2023/07/14 08:41:28;;;;;;;12.65;5.63;;;;;;;;;;5008674;28;92734;-82
2023/07/14 08:43:59;;;;;;;15.27;6.07;;;;;;;;;;5000455;28;94216;-82
2023/07/14 08:46:25;;;;;;;;;;;;;;;;;;5013313;28;94456;-82
2023/07/14 08:49:12;;;;;;;17.77;5.55;;;;;;;;;;5010159;28;118913;-82
2023/07/14 08:51:46;;;;;;;14.57;5.25;;;;;;;;;;5002477;28;94488;-81
2023/07/14 08:54:19;;;;;;;12.95;4.18;;;;;;;;;;5035397;28;92388;-82
2023/07/14 08:56:45;;;;;;;12.75;5.40;;;;;;;;;;5008979;27;95081;-82
2023/07/14 08:59:29;;;;;;;14.18;5.47;;;;;;;;;;4999226;28;94650;-82
2023/07/14 09:01:56;;;;;;;10.02;5.05;;;;;;;;;;4998984;28;92457;-84
2023/07/14 09:04:24;;;;;;;12.88;5.47;;;;;;;;;;5001529;28;93026;-85
2023/07/14 09:06:51;;;;;;;12.68;5.85;;;;;;;;;;4994330;28;94715;-84
2023/07/14 09:09:21;;;;;;;14.43;5.35;;;;;;;;;;4994122;28;92499;-84
2023/07/14 09:11:48;;;;;;;19.05;5.10;;;;;;;;;;4998164;28;94681;-84
2023/07/14 09:14:33;;;;;;;8.00;4.55;;;;;;;;;;4997601;28;91815;-84
2023/07/14 09:17:03;;;;;;;19.08;5.30;;;;;;;;;;5000199;28;93760;-84
2023/07/14 09:19:29;;;;;;;;;;;;;;;;;;5006588;28;95147;-85
2023/07/14 09:21:58;;;;;;;11.30;4.50;;;;;;;;;;5013615;28;118255;-84
2023/07/14 09:24:31;;;;;;;10.48;4.90;;;;;;;;;;5011569;28;96800;-84
2023/07/14 09:26:58;;;;;;;14.05;4.82;;;;;;;;;;5012315;28;94375;-85
2023/07/14 09:29:38;;;;;;;11.57;4.30;;;;;;;;;;4999025;28;92444;-85
2023/07/14 09:32:24;;;;;;;5.78;4.20;;;;;;;;;;4996959;28;94493;-84
2023/07/14 09:34:55;;;;;;;10.15;4.22;;;;;;;;;;5009679;28;97834;-84
2023/07/14 09:37:32;;;;;;;9.48;4.53;;;;;;;;;;4999013;28;94525;-84
2023/07/14 09:40:19;;;;;;;12.00;4.43;;;;;;;;;;4998948;28;93867;-85
2023/07/14 09:42:57;;;;;;;7.20;3.55;;;;;;;;;;4995792;28;92425;-85
2023/07/14 09:45:26;;;;;;;9.48;4.03;;;;;;;;;;5022544;28;94727;-85
2023/07/14 09:48:00;;;;;;;14.50;3.72;;;;;;;;;;5010385;28;96891;-85
2023/07/14 09:50:28;;;;;;;5.25;3.90;;;;;;;;;;5002233;28;92582;-85
2023/07/14 09:52:56;;;;;;;11.55;3.72;;;;;;;;;;4994387;28;94715;-84
2023/07/14 09:55:23;;;;;;;11.27;4.15;;;;;;;;;;4995667;28;94558;-85
2023/07/14 09:57:52;;;;;;;12.25;4.43;;;;;;;;;;5013935;28;92471;-84
2023/07/14 10:00:39;;;;;;;9.98;3.53;;;;;;;;;;5002595;28;94431;-84
2023/07/14 10:03:07;;;;;;;10.55;4.18;;;;;;;;;;4994934;28;92530;-85
2023/07/14 10:05:42;;;;;;;7.95;3.63;;;;;;;;;;5005355;28;94438;-84
2023/07/14 10:08:28;;;;;;;8.10;4.20;;;;;;;;;;4994233;28;94489;-85
2023/07/14 10:10:59;;;;;;;9.80;3.95;;;;;;;;;;4992830;28;92558;-85
2023/07/14 10:13:27;;;;;;;10.23;3.97;;;;;;;;;;4993270;28;97550;-84
2023/07/14 10:15:57;;;;;;;8.07;4.32;;;;;;;;;;4995025;28;94775;-85
2023/07/14 10:18:24;;;;;;;;;;;;;;;;;;4996573;28;92474;-85
2023/07/14 10:20:58;;;;;;;9.88;4.25;;;;;;;;;;5007470;28;122012;-83
2023/07/14 10:23:25;;;;;;;9.07;4.18;;;;;;;;;;4993875;28;94089;-84
2023/07/14 10:25:54;;;;;;;13.80;3.95;;;;;;;;;;5005490;28;97034;-85
2023/07/14 10:28:27;;;;;;;11.82;4.28;;;;;;;;;;5005959;28;94960;-84
2023/07/14 10:30:54;;;;;;;10.52;3.92;;;;;;;;;;4997564;28;91688;-82
2023/07/14 10:33:31;;;;;;;9.30;3.80;;;;;;;;;;4993426;28;93487;-83
2023/07/14 10:36:02;;;;;;;8.45;4.00;;;;;;;;;;4992528;28;94572;-84
2023/07/14 10:38:32;;;;;;;8.52;4.22;;;;;;;;;;4992222;28;94794;-85
2023/07/14 10:40:58;;;;;;;;;;;;;;;;;;5009266;28;97356;-84
2023/07/14 10:43:36;;;;;;;6.25;3.10;;;;;;;;;;5007203;28;118063;-84
2023/07/14 10:46:06;;;;;;;9.27;4.45;;;;;;;;;;5011181;28;97891;-85
2023/07/14 10:48:36;;;;;;;7.13;3.65;;;;;;;;;;5034093;27;97743;-84
2023/07/14 10:51:10;;;;;;;8.35;4.47;;;;;;;;;;5033590;28;92449;-84
2023/07/14 10:53:42;;;;;;;5.15;3.55;;;;;;;;;;5033389;27;94270;-84
2023/07/14 10:56:19;;;;;;;8.35;3.85;;;;;;;;;;5033862;28;94226;-84
2023/07/14 10:58:53;;;;;;;8.93;3.63;;;;;;;;;;5034474;27;92563;-84
2023/07/14 11:01:28;;;;;;;10.32;3.45;;;;;;;;;;5037272;27;93786;-84
2023/07/14 11:04:13;;;;;;;11.30;3.58;;;;;;;;;;5038286;27;100060;-84
2023/07/14 11:06:42;;;;;;;9.77;3.50;;;;;;;;;;5035945;28;96900;-84
2023/07/14 11:09:10;;;;;;;13.98;4.15;;;;;;;;;;5036903;28;94504;-83
2023/07/14 11:11:43;;;;;;;9.60;4.18;;;;;;;;;;5037304;27;92395;-85
2023/07/14 11:14:28;;;;;;;11.23;3.75;;;;;;;;;;5036287;28;94319;-84
2023/07/14 11:17:17;;;;;;;10.13;3.97;;;;;;;;;;5029281;28;94553;-84
2023/07/14 11:20:04;;;;;;;5.77;3.37;;;;;;;;;;5016863;28;93098;-84
2023/07/14 11:22:44;;;;;;;7.75;3.20;;;;;;;;;;5017594;28;94719;-84
2023/07/14 11:25:20;;;;;;;8.02;3.40;;;;;;;;;;5016174;28;94985;-84
2023/07/14 11:27:47;;;;;;;7.63;3.45;;;;;;;;;;5015179;28;92432;-84
2023/07/14 11:30:19;;;;;;;7.30;3.20;;;;;;;;;;5000828;28;97208;-83
2023/07/14 11:32:52;;;;;;;6.82;3.63;;;;;;;;;;5008570;28;93210;-84
2023/07/14 11:35:26;;;;;;;11.70;3.67;;;;;;;;;;5006620;28;97266;-83
2023/07/14 11:38:12;;;;;;;5.28;2.85;;;;;;;;;;5015136;28;94517;-84
2023/07/14 11:40:41;;;;;;;5.78;3.20;;;;;;;;;;5015892;28;92589;-84
2023/07/14 11:43:11;;;;;;;6.18;2.80;;;;;;;;;;5016763;28;92817;-83
2023/07/14 11:45:39;;;;;;;6.68;3.08;;;;;;;;;;5014252;28;94502;-84
2023/07/14 11:48:16;;;;;;;6.00;3.10;;;;;;;;;;5015926;28;91702;-84
2023/07/14 11:50:44;;;;;;;10.50;2.92;;;;;;;;;;5017616;28;93452;-83
2023/07/14 11:53:19;;;;;;;9.13;3.03;;;;;;;;;;5012745;28;92474;-83
2023/07/14 11:55:48;;;;;;;6.53;2.67;;;;;;;;;;5007140;28;94840;-83
2023/07/14 11:58:20;;;;;;;4.65;2.90;;;;;;;;;;4996111;28;94692;-84
2023/07/14 12:00:51;;;;;;;17.35;3.58;;;;;;;;;;4996512;28;92560;-83
2023/07/14 12:03:27;;;;;;;4.45;3.00;;;;;;;;;;5006098;28;94317;-83
2023/07/14 12:06:21;;;;;;;6.38;3.33;;;;;;;;;;5015118;28;94896;-83
2023/07/14 12:09:06;;;;;;;9.50;3.17;;;;;;;;;;5015727;28;92468;-84
2023/07/14 12:11:38;;;;;;;15.20;3.35;;;;;;;;;;5015454;28;94521;-84
2023/07/14 12:14:23;;;;;;;9.35;3.05;;;;;;;;;;5016755;28;93766;-84
2023/07/14 12:16:50;;;;;;;9.68;3.15;;;;;;;;;;5009052;28;95470;-84
2023/07/14 12:19:22;;;;;;;9.25;3.60;;;;;;;;;;5015752;28;94878;-83
2023/07/14 12:21:56;;;;;;;4.00;3.13;;;;;;;;;;5012857;28;95214;-84
2023/07/14 12:24:27;;;;;;;5.45;2.83;;;;;;;;;;5011954;28;96225;-84
2023/07/14 12:27:12;;;;;;;4.05;2.60;;;;;;;;;;5001799;28;93630;-83
2023/07/14 12:29:38;;;;;;;4.78;3.05;;;;;;;;;;4996677;28;92701;-83
2023/07/14 12:32:23;;;;;;;5.80;2.50;;;;;;;;;;4998685;28;94265;-83
2023/07/14 12:34:50;;;;;;;8.45;3.08;;;;;;;;;;5003036;28;93205;-84
2023/07/14 12:37:17;;;;;;;6.32;2.75;;;;;;;;;;4996132;28;97272;-85
2023/07/14 12:39:44;;;;;;;3.42;2.42;;;;;;;;;;5010710;28;92744;-84
2023/07/14 12:42:12;;;;;;;4.88;2.63;;;;;;;;;;5003287;28;92607;-80
2023/07/14 12:44:39;;;;;;;3.88;2.40;;;;;;;;;;5014973;28;94538;-79
2023/07/14 12:47:12;;;;;;;9.05;2.88;;;;;;;;;;5013767;28;97267;-80
2023/07/14 12:49:42;;;;;;;6.15;2.50;;;;;;;;;;5015289;28;92367;-79
2023/07/14 12:52:28;;;;;;;8.48;2.40;;;;;;;;;;5003188;28;93810;-78
2023/07/14 12:55:02;;;;;;;7.80;3.15;;;;;;;;;;4994811;28;94486;-78
2023/07/14 12:57:32;;;;;;;11.05;3.05;;;;;;;;;;4998128;28;92649;-77
2023/07/14 13:00:15;;;;;;;8.05;2.40;;;;;;;;;;5011800;28;93217;-77
2023/07/14 13:02:44;;;;;;;7.93;2.88;;;;;;;;;;5000291;28;92642;-78
2023/07/14 13:05:14;;;;;;;6.60;2.80;;;;;;;;;;4995332;28;94166;-77
2023/07/14 13:07:48;;;;;;;4.07;2.72;;;;;;;;;;4994276;28;93695;-79
2023/07/14 13:10:19;;;;;;;6.93;3.25;;;;;;;;;;4994606;28;92425;-78
2023/07/14 13:12:47;;;;;;;5.82;2.90;;;;;;;;;;4995096;28;96959;-77
2023/07/14 13:15:14;;;;;;;4.70;3.22;;;;;;;;;;4993841;28;97661;-77
2023/07/14 13:17:41;;;;;;;6.68;3.10;;;;;;;;;;5009195;28;92500;-77
2023/07/14 13:20:09;;;;;;;8.85;3.55;;;;;;;;;;5010330;28;93032;-77
2023/07/14 13:22:37;;;;;;;6.50;2.72;;;;;;;;;;5000995;28;92510;-76
2023/07/14 13:25:05;;;;;;;5.03;3.13;;;;;;;;;;5010569;28;93227;-79
2023/07/14 13:27:36;;;;;;;7.25;3.08;;;;;;;;;;5006021;28;93323;-78
2023/07/14 13:30:30;;;;;;;7.47;3.05;;;;;;;;;;5001600;28;92245;-78
2023/07/14 13:32:59;;;;;;;5.32;2.70;;;;;;;;;;5000848;28;94676;-78
2023/07/14 13:35:27;;;;;;;4.60;2.50;;;;;;;;;;4996725;28;93529;-78
2023/07/14 13:37:58;;;;;;;9.73;3.22;;;;;;;;;;4993565;28;96719;-78
2023/07/14 13:40:28;;;;;;;4.20;2.80;;;;;;;;;;5006417;28;95524;-77
2023/07/14 13:42:58;;;;;;;7.20;2.88;;;;;;;;;;5004028;28;94267;-78
2023/07/14 13:45:32;;;;;;;8.88;2.75;;;;;;;;;;5004927;28;93078;-78
2023/07/14 13:47:58;;;;;;;5.20;2.60;;;;;;;;;;4998376;28;93825;-78
2023/07/14 13:50:26;;;;;;;2.45;1.85;;;;;;;;;;4997643;28;92923;-78
2023/07/14 13:52:52;;;;;;;5.25;2.00;;;;;;;;;;5011147;28;94147;-78
2023/07/14 13:55:20;;;;;;;5.72;1.75;;;;;;;;;;5007832;28;93845;-78
2023/07/14 13:57:47;;;;;;;4.22;2.20;;;;;;;;;;4995260;28;94269;-78
2023/07/14 14:00:17;;;;;;;8.18;2.03;;;;;;;;;;5002992;28;94277;-78
2023/07/14 14:02:45;;;;;;;6.13;2.08;;;;;;;;;;4994374;28;95952;-78
2023/07/14 14:05:18;;;;;;;4.35;2.00;;;;;;;;;;5007025;28;92571;-78
2023/07/14 14:07:45;;;;;;;9.38;2.38;;;;;;;;;;5009222;28;93391;-77
2023/07/14 14:10:13;;;;;;;8.25;2.50;;;;;;;;;;5005456;28;92621;-77
2023/07/14 14:12:42;;;;;;;6.30;2.30;;;;;;;;;;5007012;28;93151;-77
2023/07/14 14:15:13;;;;;;;3.42;2.05;;;;;;;;;;5012303;28;93499;-77
2023/07/14 14:17:40;;;;;;;7.60;2.50;;;;;;;;;;5013475;28;92759;-77
2023/07/14 14:20:12;;;;;;;6.63;2.65;;;;;;;;;;5007713;28;93110;-77
2023/07/14 14:22:39;;;;;;;3.92;2.20;;;;;;;;;;4997449;28;94343;-77
2023/07/14 14:25:16;;;;;;;4.50;2.38;;;;;;;;;;5012834;28;92761;-78
2023/07/14 14:27:44;;;;;;;3.53;2.38;;;;;;;;;;5007256;28;94833;-78
2023/07/14 14:30:10;;;;;;;4.53;2.10;;;;;;;;;;4992204;28;92453;-78
2023/07/14 14:32:37;;;;;;;4.75;2.10;;;;;;;;;;4995175;28;93123;-77
2023/07/14 14:35:16;;;;;;;4.88;2.40;;;;;;;;;;4997454;28;93502;-77
2023/07/14 14:37:43;;;;;;;7.07;2.63;;;;;;;;;;5004493;28;92357;-79
2023/07/14 14:40:12;;;;;;;6.80;2.10;;;;;;;;;;5007727;28;94409;-83
2023/07/14 14:42:39;;;;;;;;;;;;;;;;;;4998051;28;94454;-83
2023/07/14 14:45:19;;;;;;;6.20;2.10;;;;;;;;;;5000354;28;118532;-83
2023/07/14 14:47:47;;;;;;;3.72;2.50;;;;;;;;;;5005081;28;92623;-83
2023/07/14 14:50:14;;;;;;;7.55;2.70;;;;;;;;;;5017653;28;92672;-83
2023/07/14 14:52:40;;;;;;;5.47;2.70;;;;;;;;;;5012478;28;96227;-82